Time;durP1;ratioP1;P1;durP2;ratioP2;P2;SDS_P1;SDS_P2;PMS_P1;PMS_P2;Temp;Humidity;BMP_temperature;BMP_pressure;BME280_temperature;BME280_humidity;BME280_pressure;Samples;Min_cycle;Max_cycle;Signal;HPM_P1;HPM_P2
2021/09/22 00:00:26;;;;;;;5.25;1.83;;;7.00;99.90;;;;;;5029724;28;20029;-67
2021/09/22 00:02:52;;;;;;;2.47;2.00;;;7.00;99.90;;;;;;5029528;28;20105;-67
2021/09/22 00:05:18;;;;;;;2.42;2.20;;;7.00;99.90;;;;;;5029527;28;20040;-67
2021/09/22 00:07:44;;;;;;;2.60;2.13;;;7.00;99.90;;;;;;5029397;28;20026;-67
2021/09/22 00:10:13;;;;;;;2.20;2.00;;;7.00;99.90;;;;;;5029900;28;20454;-67
2021/09/22 00:12:40;;;;;;;2.30;1.83;;;7.00;99.90;;;;;;5029387;28;20032;-67
2021/09/22 00:15:09;;;;;;;2.22;2.00;;;7.00;99.90;;;;;;5029620;28;20118;-67
2021/09/22 00:17:34;;;;;;;3.47;1.95;;;7.00;99.90;;;;;;5029514;28;20481;-67
2021/09/22 00:20:01;;;;;;;2.53;2.20;;;7.00;99.90;;;;;;5029597;28;20041;-68
2021/09/22 00:22:27;;;;;;;3.15;2.03;;;6.90;99.90;;;;;;5029381;28;20028;-69
2021/09/22 00:24:52;;;;;;;5.35;2.20;;;7.00;99.90;;;;;;5029239;28;20030;-70
2021/09/22 00:27:18;;;;;;;2.80;1.75;;;6.90;99.90;;;;;;5029199;28;20504;-70
2021/09/22 00:29:44;;;;;;;2.47;1.90;;;6.90;99.90;;;;;;5029235;28;20026;-70
2021/09/22 00:32:10;;;;;;;4.35;2.13;;;6.90;99.90;;;;;;5029503;28;20026;-70
2021/09/22 00:34:36;;;;;;;2.72;2.00;;;6.90;99.90;;;;;;5029124;28;20017;-69
2021/09/22 00:37:04;;;;;;;5.07;2.17;;;6.80;99.90;;;;;;5029161;28;20028;-70
2021/09/22 00:39:31;;;;;;;6.22;2.80;;;6.90;99.90;;;;;;5029306;28;20489;-70
2021/09/22 00:41:56;;;;;;;5.93;1.88;;;6.90;99.90;;;;;;5029010;28;20025;-69
2021/09/22 00:44:22;;;;;;;2.90;1.92;;;6.90;99.90;;;;;;5029346;28;20124;-70
2021/09/22 00:46:48;;;;;;;2.72;2.13;;;6.90;99.90;;;;;;5029176;28;20461;-70
2021/09/22 00:49:14;;;;;;;2.03;1.83;;;6.90;99.90;;;;;;5028964;28;20029;-70
2021/09/22 00:51:40;;;;;;;3.70;2.40;;;6.90;99.90;;;;;;5029083;28;20024;-69
2021/09/22 00:54:06;;;;;;;2.85;2.25;;;6.90;99.90;;;;;;5028871;28;20032;-69
2021/09/22 00:56:31;;;;;;;4.85;2.10;;;6.90;99.90;;;;;;5028708;28;20405;-70
2021/09/22 00:58:57;;;;;;;2.65;2.35;;;7.00;99.90;;;;;;5028809;28;20082;-69
2021/09/22 01:01:23;;;;;;;3.33;2.03;;;7.00;99.90;;;;;;5028746;28;20033;-69
2021/09/22 01:03:49;;;;;;;3.75;2.00;;;6.90;99.90;;;;;;5028622;28;20022;-69
2021/09/22 01:06:16;;;;;;;2.95;1.83;;;7.00;99.90;;;;;;5029402;28;20041;-69
2021/09/22 01:08:42;;;;;;;4.10;2.10;;;7.00;99.90;;;;;;5032467;28;20036;-69
2021/09/22 01:11:08;;;;;;;2.30;1.73;;;7.00;99.90;;;;;;5032275;28;20021;-69
2021/09/22 01:13:34;;;;;;;2.75;2.42;;;7.00;99.90;;;;;;5032525;28;20170;-69
2021/09/22 01:16:00;;;;;;;9.88;2.28;;;7.00;99.90;;;;;;5032086;28;20478;-69
2021/09/22 01:18:26;;;;;;;4.18;1.92;;;7.00;99.90;;;;;;5032186;28;20106;-69
2021/09/22 01:20:56;;;;;;;2.75;2.00;;;7.00;99.90;;;;;;5032032;28;20098;-69
2021/09/22 01:23:23;;;;;;;4.00;2.17;;;7.00;99.90;;;;;;5031970;28;20028;-69
2021/09/22 01:25:51;;;;;;;2.53;2.20;;;6.90;99.90;;;;;;5031939;28;20064;-69
2021/09/22 01:28:20;;;;;;;4.35;2.20;;;6.90;99.90;;;;;;5032025;28;20030;-70
2021/09/22 01:30:47;;;;;;;4.55;2.40;;;6.90;99.90;;;;;;5031957;28;20021;-71
2021/09/22 01:33:15;;;;;;;14.77;2.35;;;6.90;99.90;;;;;;5032080;28;20113;-70
2021/09/22 01:35:44;;;;;;;2.30;2.00;;;6.90;99.90;;;;;;5031954;28;20062;-70
2021/09/22 01:38:13;;;;;;;3.58;1.95;;;7.00;99.90;;;;;;5032059;28;20021;-70
2021/09/22 01:40:39;;;;;;;3.10;1.80;;;7.00;99.90;;;;;;5031906;28;20022;-70
2021/09/22 01:43:05;;;;;;;3.47;2.15;;;7.00;99.90;;;;;;5030522;28;20029;-71
2021/09/22 01:45:32;;;;;;;2.03;1.88;;;7.00;99.90;;;;;;5031862;28;20040;-70
2021/09/22 01:47:59;;;;;;;2.45;2.00;;;7.00;99.90;;;;;;5031681;28;20025;-70
2021/09/22 01:50:25;;;;;;;2.28;1.90;;;7.00;99.90;;;;;;5031666;28;20496;-70
2021/09/22 01:52:52;;;;;;;2.17;1.98;;;7.00;99.90;;;;;;5031477;28;20083;-70
2021/09/22 01:55:19;;;;;;;2.00;1.85;;;6.90;99.90;;;;;;5031528;28;20524;-70
2021/09/22 01:57:46;;;;;;;3.10;2.00;;;6.90;99.90;;;;;;5031393;28;20030;-70
2021/09/22 02:00:12;;;;;;;2.42;2.20;;;7.00;99.90;;;;;;5031609;28;20050;-69
2021/09/22 02:02:37;;;;;;;8.15;2.10;;;6.90;99.90;;;;;;5031565;28;20018;-69
2021/09/22 02:05:04;;;;;;;2.88;2.10;;;6.90;99.90;;;;;;5031563;28;20074;-70
2021/09/22 02:07:31;;;;;;;4.97;1.90;;;7.00;99.90;;;;;;5031440;28;20103;-70
2021/09/22 02:09:58;;;;;;;4.30;2.20;;;7.00;99.90;;;;;;5031572;28;20074;-70
2021/09/22 02:12:25;;;;;;;1.70;1.60;;;7.00;99.90;;;;;;5031646;28;20040;-70
2021/09/22 02:14:51;;;;;;;2.80;2.05;;;7.00;99.90;;;;;;5031251;28;20025;-69
2021/09/22 02:17:17;;;;;;;4.90;1.98;;;7.00;99.90;;;;;;5031474;28;20017;-70
2021/09/22 02:19:44;;;;;;;2.40;2.13;;;7.00;99.90;;;;;;5030481;28;20489;-70
2021/09/22 02:22:10;;;;;;;3.75;2.97;;;7.00;99.90;;;;;;5031268;28;20110;-70
2021/09/22 02:53:39;;;;;;;5.45;2.00;;;7.20;99.90;;;;;;5030491;28;20170;-67
2021/09/22 02:56:05;;;;;;;2.20;1.70;;;7.20;99.90;;;;;;5030455;28;20053;-67
2021/09/22 02:58:31;;;;;;;2.63;1.92;;;7.20;99.90;;;;;;5030696;28;20033;-67
2021/09/22 03:00:57;;;;;;;2.28;2.00;;;7.20;99.90;;;;;;5030811;28;20022;-67
2021/09/22 03:03:23;;;;;;;5.85;1.90;;;7.30;99.90;;;;;;5030391;28;20553;-67
2021/09/22 03:05:49;;;;;;;4.78;1.80;;;7.30;99.90;;;;;;5030911;28;20037;-67
2021/09/22 03:08:15;;;;;;;2.58;1.95;;;7.30;99.90;;;;;;5030433;28;20014;-67
2021/09/22 03:10:40;;;;;;;3.45;1.92;;;7.30;99.90;;;;;;5030501;28;20040;-67
2021/09/22 03:13:06;;;;;;;2.85;2.03;;;7.30;99.90;;;;;;5030256;28;20023;-67
2021/09/22 03:15:32;;;;;;;2.55;1.90;;;7.40;99.90;;;;;;5030712;28;20407;-67
2021/09/22 03:17:58;;;;;;;2.13;1.90;;;7.40;99.90;;;;;;5030279;28;20027;-67
2021/09/22 03:20:23;;;;;;;3.38;2.08;;;7.40;99.90;;;;;;5030244;28;20511;-67
2021/09/22 03:22:49;;;;;;;3.05;1.70;;;7.40;99.90;;;;;;5030211;28;20054;-67
2021/09/22 03:25:15;;;;;;;1.80;1.70;;;7.40;99.90;;;;;;5029939;28;20511;-67
2021/09/22 03:27:42;;;;;;;3.92;2.05;;;7.40;99.90;;;;;;5030385;28;20025;-68
2021/09/22 03:30:09;;;;;;;6.97;2.28;;;7.40;99.90;;;;;;5028855;28;20026;-68
2021/09/22 03:32:35;;;;;;;5.35;1.92;;;7.40;99.90;;;;;;5030013;28;20469;-68
2021/09/22 03:35:01;;;;;;;2.80;1.90;;;7.50;99.90;;;;;;5030334;28;20037;-68
2021/09/22 03:37:27;;;;;;;3.63;1.80;;;7.50;99.90;;;;;;5028688;28;20021;-68
2021/09/22 03:39:53;;;;;;;2.47;1.90;;;7.50;99.90;;;;;;5030050;28;20026;-68
2021/09/22 03:42:18;;;;;;;2.80;1.75;;;7.50;99.90;;;;;;5029830;28;20150;-68
2021/09/22 03:44:44;;;;;;;2.13;1.83;;;7.50;99.90;;;;;;5029845;28;20119;-68
2021/09/22 03:47:10;;;;;;;9.73;1.80;;;7.50;99.90;;;;;;5029842;28;20036;-68
2021/09/22 03:49:36;;;;;;;12.30;2.20;;;7.50;99.90;;;;;;5029765;28;20022;-68
2021/09/22 03:52:02;;;;;;;2.08;1.70;;;7.50;99.90;;;;;;5029806;28;20028;-68
2021/09/22 03:54:27;;;;;;;4.80;2.20;;;7.60;99.90;;;;;;5029516;28;20105;-68
2021/09/22 03:56:53;;;;;;;3.45;2.00;;;7.60;99.90;;;;;;5029784;28;20045;-68
2021/09/22 03:59:19;;;;;;;2.15;1.95;;;7.60;99.90;;;;;;5029635;28;20033;-68
2021/09/22 04:01:45;;;;;;;2.13;1.77;;;7.60;99.90;;;;;;5029726;28;20021;-68
2021/09/22 04:04:11;;;;;;;7.57;2.28;;;7.60;99.90;;;;;;5029701;28;20036;-68
2021/09/22 04:06:38;;;;;;;3.72;1.95;;;7.60;99.90;;;;;;5029854;28;20030;-68
2021/09/22 04:09:04;;;;;;;3.28;1.50;;;7.60;99.90;;;;;;5029738;28;20030;-67
2021/09/22 04:11:30;;;;;;;3.38;1.77;;;7.70;99.90;;;;;;5029383;28;20021;-67
2021/09/22 04:13:57;;;;;;;3.00;1.80;;;7.70;99.90;;;;;;5029623;28;20104;-68
2021/09/22 04:16:22;;;;;;;8.25;2.67;;;7.70;99.90;;;;;;5029496;28;20051;-67
2021/09/22 04:18:48;;;;;;;5.15;2.40;;;7.70;99.90;;;;;;5029479;28;20021;-67
2021/09/22 04:21:14;;;;;;;2.60;1.98;;;7.70;99.90;;;;;;5029502;28;20025;-67
2021/09/22 04:23:40;;;;;;;4.78;1.85;;;7.70;99.90;;;;;;5029360;28;20041;-67
2021/09/22 04:26:05;;;;;;;4.40;2.00;;;7.70;99.90;;;;;;5029245;28;20025;-67
2021/09/22 04:28:31;;;;;;;2.45;1.90;;;7.80;99.90;;;;;;5029167;28;20021;-68
2021/09/22 04:30:57;;;;;;;5.93;1.52;;;7.80;99.90;;;;;;5029518;28;20025;-69
2021/09/22 04:33:23;;;;;;;5.03;1.70;;;7.80;99.90;;;;;;5029118;28;20483;-68
2021/09/22 04:35:49;;;;;;;3.50;2.30;;;7.80;99.90;;;;;;5029249;28;20029;-66
2021/09/22 04:38:14;;;;;;;3.88;1.92;;;7.80;99.90;;;;;;5028939;28;20032;-67
2021/09/22 04:40:40;;;;;;;5.15;2.25;;;7.80;99.90;;;;;;5029155;28;20037;-67
2021/09/22 04:43:06;;;;;;;5.78;1.70;;;7.80;99.90;;;;;;5028834;28;20029;-67
2021/09/22 04:45:31;;;;;;;3.65;2.20;;;7.90;99.90;;;;;;5028878;28;20037;-67
2021/09/22 04:48:00;;;;;;;6.80;2.72;;;7.90;99.90;;;;;;5029000;28;20026;-67
2021/09/22 04:50:28;;;;;;;3.50;2.10;;;7.80;99.90;;;;;;5028598;28;20480;-67
2021/09/22 04:52:55;;;;;;;5.05;2.42;;;7.80;99.90;;;;;;5028940;28;20030;-67
2021/09/22 04:55:21;;;;;;;8.05;2.50;;;8.00;99.90;;;;;;5028793;28;20046;-68
2021/09/22 04:57:46;;;;;;;10.90;2.58;;;8.10;99.90;;;;;;5028917;28;20492;-68
2021/09/22 05:00:13;;;;;;;2.50;1.80;;;8.10;99.90;;;;;;5028780;28;20086;-67
2021/09/22 05:02:39;;;;;;;4.50;2.30;;;8.20;99.90;;;;;;5028777;28;20045;-65
2021/09/22 05:05:05;;;;;;;10.63;2.80;;;8.20;99.90;;;;;;5028661;28;20038;-64
2021/09/22 05:07:31;;;;;;;4.15;1.80;;;8.20;99.90;;;;;;5028586;28;20018;-65
2021/09/22 05:09:57;;;;;;;2.63;2.30;;;8.20;99.90;;;;;;5028646;28;20022;-67
2021/09/22 05:12:22;;;;;;;7.55;2.15;;;8.20;99.90;;;;;;5028524;28;20056;-66
2021/09/22 05:14:48;;;;;;;4.95;2.30;;;8.20;99.90;;;;;;5028933;28;20029;-66
2021/09/22 05:17:14;;;;;;;4.70;2.25;;;8.30;99.90;;;;;;5028497;28;20053;-66
2021/09/22 05:19:39;;;;;;;3.80;2.20;;;8.40;99.90;;;;;;5028705;28;20025;-66
2021/09/22 05:22:05;;;;;;;4.32;2.30;;;8.40;99.90;;;;;;5028896;28;20030;-66
2021/09/22 05:24:31;;;;;;;4.68;1.90;;;8.40;99.90;;;;;;5028458;28;20065;-66
2021/09/22 05:26:57;;;;;;;3.50;1.70;;;8.50;99.90;;;;;;5028903;28;20105;-66
2021/09/22 05:29:22;;;;;;;3.42;2.08;;;8.50;99.90;;;;;;5028524;28;20385;-66
2021/09/22 05:31:48;;;;;;;12.80;2.78;;;8.50;99.90;;;;;;5028490;28;20026;-67
2021/09/22 05:34:14;;;;;;;6.28;2.00;;;8.60;99.90;;;;;;5028121;28;20121;-67
2021/09/22 05:36:40;;;;;;;4.57;2.10;;;8.70;99.90;;;;;;5028354;28;20028;-67
2021/09/22 05:39:06;;;;;;;6.80;1.85;;;8.80;99.90;;;;;;5028456;28;20026;-67
2021/09/22 05:41:32;;;;;;;3.20;1.70;;;8.90;99.90;;;;;;5028440;28;20066;-67
2021/09/22 05:43:58;;;;;;;3.95;2.00;;;8.90;99.90;;;;;;5028051;28;20044;-67
2021/09/22 05:46:24;;;;;;;3.10;1.40;;;9.00;99.90;;;;;;5028213;28;20100;-67
2021/09/22 05:48:49;;;;;;;4.13;1.83;;;8.90;99.90;;;;;;5028206;28;20041;-66
2021/09/22 05:51:15;;;;;;;4.47;1.92;;;9.00;99.90;;;;;;5026757;28;20063;-66
2021/09/22 05:53:43;;;;;;;4.28;2.25;;;9.00;99.90;;;;;;5029248;28;20098;-67
2021/09/22 05:56:10;;;;;;;6.35;2.20;;;9.10;99.90;;;;;;5031439;28;20436;-67
2021/09/22 05:58:35;;;;;;;5.13;2.28;;;9.00;99.90;;;;;;5031410;28;20036;-67
2021/09/22 06:01:01;;;;;;;2.50;1.90;;;9.10;99.90;;;;;;5031561;28;20100;-67
2021/09/22 06:03:28;;;;;;;5.45;2.28;;;9.10;99.90;;;;;;5031225;28;20060;-66
2021/09/22 06:05:53;;;;;;;5.90;2.42;;;9.00;99.90;;;;;;5031346;28;20033;-65
2021/09/22 06:08:20;;;;;;;6.35;2.10;;;8.80;99.90;;;;;;5031146;28;20022;-66
2021/09/22 06:10:46;;;;;;;5.60;2.22;;;8.80;99.90;;;;;;5031310;28;20044;-66
2021/09/22 06:13:12;;;;;;;11.75;2.80;;;8.70;99.90;;;;;;5030955;28;20022;-67
2021/09/22 06:15:39;;;;;;;3.15;2.20;;;8.70;99.90;;;;;;5030839;28;20556;-66
2021/09/22 06:18:05;;;;;;;3.60;2.30;;;8.70;99.90;;;;;;5031333;28;20033;-66
2021/09/22 06:20:32;;;;;;;5.25;1.60;;;8.70;99.90;;;;;;5031328;28;20366;-66
2021/09/22 06:22:58;;;;;;;4.85;2.10;;;8.90;99.90;;;;;;5031084;28;20026;-65
2021/09/22 06:25:24;;;;;;;3.65;2.17;;;9.00;99.90;;;;;;5030837;28;20086;-64
2021/09/22 06:27:50;;;;;;;3.25;2.10;;;8.90;99.90;;;;;;5031100;28;20030;-64
2021/09/22 06:30:16;;;;;;;2.33;1.85;;;8.90;99.90;;;;;;5031062;28;20544;-64
2021/09/22 06:32:42;;;;;;;8.05;2.03;;;8.90;99.90;;;;;;5031075;28;20381;-64
2021/09/22 06:35:10;;;;;;;4.25;1.98;;;8.80;99.90;;;;;;5029897;28;20033;-66
2021/09/22 06:37:37;;;;;;;5.00;1.88;;;8.80;99.90;;;;;;5029653;28;20033;-64
2021/09/22 06:40:05;;;;;;;3.60;1.80;;;8.80;99.90;;;;;;5031358;28;20030;-64
2021/09/22 06:42:31;;;;;;;2.80;2.10;;;8.80;99.90;;;;;;5030803;28;20087;-64
2021/09/22 06:44:57;;;;;;;5.85;2.42;;;8.90;99.90;;;;;;5030899;28;20037;-64
2021/09/22 06:47:22;;;;;;;5.00;2.25;;;8.90;99.90;;;;;;5030800;28;20026;-64
2021/09/22 06:49:48;;;;;;;4.30;2.22;;;8.90;99.90;;;;;;5030799;28;20371;-64
2021/09/22 06:52:14;;;;;;;2.88;1.85;;;9.00;99.90;;;;;;5029405;28;20072;-65
2021/09/22 06:54:40;;;;;;;8.32;2.65;;;9.00;99.90;;;;;;5030044;28;20030;-65
2021/09/22 06:57:06;;;;;;;4.22;1.98;;;9.00;99.90;;;;;;5030585;28;20030;-65
2021/09/22 06:59:31;;;;;;;3.17;2.13;;;9.00;99.90;;;;;;5030397;28;20079;-65
2021/09/22 07:01:57;;;;;;;3.60;2.25;;;9.00;99.90;;;;;;5030533;28;20025;-65
2021/09/22 07:04:23;;;;;;;2.70;2.08;;;9.00;99.90;;;;;;5029689;28;20518;-64
2021/09/22 07:06:49;;;;;;;6.78;2.17;;;9.10;99.90;;;;;;5030269;28;20048;-65
2021/09/22 07:09:14;;;;;;;3.05;2.10;;;9.10;99.90;;;;;;5030351;28;20029;-65
2021/09/22 07:11:40;;;;;;;6.15;2.20;;;9.10;99.90;;;;;;5030376;28;20112;-66
2021/09/22 07:14:06;;;;;;;6.93;2.55;;;9.10;99.90;;;;;;5030226;28;20026;-65
2021/09/22 07:16:32;;;;;;;14.50;3.95;;;9.10;99.90;;;;;;5030490;28;20498;-65
2021/09/22 07:18:58;;;;;;;4.82;1.92;;;9.10;99.90;;;;;;5030430;28;20104;-65
2021/09/22 07:21:25;;;;;;;7.13;2.38;;;9.20;99.90;;;;;;5030084;28;20029;-64
2021/09/22 07:23:50;;;;;;;3.88;2.42;;;9.20;99.90;;;;;;5030021;28;20078;-65
2021/09/22 07:26:16;;;;;;;2.55;2.17;;;9.20;99.90;;;;;;5029865;28;20029;-67
2021/09/22 07:28:43;;;;;;;10.57;2.33;;;9.30;99.90;;;;;;5030036;28;20036;-67
2021/09/22 07:31:09;;;;;;;5.43;2.00;;;9.30;99.90;;;;;;5030377;28;20033;-67
2021/09/22 07:33:35;;;;;;;2.70;1.98;;;9.30;99.90;;;;;;5029748;28;20519;-66
2021/09/22 07:36:00;;;;;;;3.10;2.10;;;9.30;99.90;;;;;;5028582;28;20033;-67
2021/09/22 07:38:27;;;;;;;4.10;2.30;;;9.30;99.90;;;;;;5029316;28;20030;-67
2021/09/22 07:40:53;;;;;;;6.38;2.10;;;9.30;99.90;;;;;;5029224;28;20028;-67
2021/09/22 07:43:18;;;;;;;3.20;2.28;;;9.30;99.90;;;;;;5029405;28;20026;-67
2021/09/22 07:45:45;;;;;;;12.63;2.45;;;9.30;99.90;;;;;;5029217;28;20507;-68
2021/09/22 07:48:10;;;;;;;2.13;1.92;;;9.40;99.90;;;;;;5029378;28;20026;-68
2021/09/22 07:50:36;;;;;;;2.90;2.00;;;9.40;99.90;;;;;;5029275;28;20472;-68
2021/09/22 07:53:03;;;;;;;4.97;1.92;;;9.40;99.90;;;;;;5029301;28;20018;-68
2021/09/22 07:55:29;;;;;;;4.10;2.15;;;9.40;99.90;;;;;;5029085;28;20052;-67
2021/09/22 07:57:55;;;;;;;5.82;2.83;;;9.40;99.90;;;;;;5029483;28;20034;-68
2021/09/22 08:00:22;;;;;;;2.85;2.05;;;9.40;99.90;;;;;;5029544;28;20022;-68
2021/09/22 08:02:48;;;;;;;11.52;3.55;;;9.40;99.90;;;;;;5029644;28;20564;-68
2021/09/22 08:05:14;;;;;;;2.92;1.92;;;9.50;99.90;;;;;;5029621;28;20401;-68
2021/09/22 08:07:40;;;;;;;3.17;1.83;;;9.50;99.90;;;;;;5029813;28;20033;-68
2021/09/22 08:10:07;;;;;;;5.55;2.25;;;9.50;99.90;;;;;;5029725;28;20029;-67
2021/09/22 08:12:32;;;;;;;3.20;2.22;;;9.50;99.90;;;;;;5029754;28;20023;-68
2021/09/22 08:14:59;;;;;;;4.30;2.30;;;9.50;99.90;;;;;;5029464;28;20385;-68
2021/09/22 08:17:24;;;;;;;13.18;3.85;;;9.50;99.90;;;;;;5028677;28;20033;-66
2021/09/22 08:19:50;;;;;;;8.18;2.50;;;9.60;99.90;;;;;;5029525;28;20026;-68
2021/09/22 08:22:17;;;;;;;8.88;2.15;;;9.60;99.90;;;;;;5029393;28;20495;-67
2021/09/22 08:24:44;;;;;;;3.47;2.47;;;9.70;99.90;;;;;;5029358;28;20033;-68
2021/09/22 08:27:12;;;;;;;3.50;2.58;;;9.60;99.90;;;;;;5029296;28;20025;-68
2021/09/22 08:29:38;;;;;;;5.22;2.50;;;9.70;99.90;;;;;;5029141;28;20055;-68
2021/09/22 08:32:04;;;;;;;5.00;2.60;;;9.70;99.90;;;;;;5029288;28;20022;-67
2021/09/22 08:34:30;;;;;;;4.57;2.58;;;9.80;99.90;;;;;;5029179;28;20033;-67
2021/09/22 08:36:55;;;;;;;2.78;2.08;;;10.20;99.90;;;;;;5029179;28;20026;-67
2021/09/22 08:39:21;;;;;;;3.65;2.20;;;10.40;99.90;;;;;;5028910;28;20057;-67
2021/09/22 08:41:48;;;;;;;3.65;2.40;;;10.30;99.90;;;;;;5029119;28;20075;-66
2021/09/22 08:44:16;;;;;;;3.60;2.20;;;10.20;99.90;;;;;;5028845;28;20041;-67
2021/09/22 08:46:44;;;;;;;4.75;2.40;;;10.20;99.90;;;;;;5028894;28;20028;-67
2021/09/22 08:49:11;;;;;;;4.45;2.58;;;10.20;99.90;;;;;;5028995;28;20025;-67
2021/09/22 08:51:38;;;;;;;4.10;2.53;;;10.20;99.90;;;;;;5028554;28;20516;-67
2021/09/22 08:54:04;;;;;;;6.72;2.42;;;10.20;99.90;;;;;;5028580;28;20034;-67
2021/09/22 08:56:31;;;;;;;6.70;2.70;;;10.20;99.90;;;;;;5028971;28;20042;-67
2021/09/22 08:58:57;;;;;;;4.50;2.60;;;10.20;99.90;;;;;;5028895;28;20029;-67
2021/09/22 09:01:25;;;;;;;5.57;2.53;;;10.30;99.90;;;;;;5028521;28;20036;-67
2021/09/22 09:03:52;;;;;;;8.15;2.20;;;10.30;99.90;;;;;;5028689;28;20026;-67
2021/09/22 09:06:20;;;;;;;5.43;2.40;;;10.30;99.90;;;;;;5028865;28;20034;-67
2021/09/22 09:08:54;;;;;;;5.63;2.47;;;10.30;99.90;;;;;;5028480;28;20026;-67
2021/09/22 09:11:34;;;;;;;6.38;2.60;;;10.30;99.90;;;;;;5028912;28;20382;-67
2021/09/22 09:14:02;;;;;;;8.65;2.42;;;10.40;99.90;;;;;;5028968;28;20026;-67
2021/09/22 09:16:37;;;;;;;3.30;2.28;;;10.40;99.90;;;;;;5028898;28;20026;-67
2021/09/22 09:19:13;;;;;;;7.05;2.80;;;10.30;99.90;;;;;;5028565;28;20026;-67
2021/09/22 09:22:03;;;;;;;3.70;2.38;;;10.30;99.90;;;;;;5028488;28;20498;-67
2021/09/22 09:24:32;;;;;;;4.07;2.47;;;10.40;99.90;;;;;;5028438;28;20036;-67
2021/09/22 09:26:58;;;;;;;4.53;2.15;;;10.40;99.90;;;;;;5028626;28;20014;-68
2021/09/22 09:29:24;;;;;;;5.50;2.15;;;10.40;99.90;;;;;;5030821;28;20034;-67
2021/09/22 09:31:51;;;;;;;6.03;2.63;;;10.40;99.90;;;;;;5030877;28;20024;-67
2021/09/22 09:34:17;;;;;;;4.97;2.20;;;10.40;99.90;;;;;;5032045;28;20021;-67
2021/09/22 09:36:45;;;;;;;5.25;2.28;;;10.40;99.90;;;;;;5031955;28;20421;-67
2021/09/22 09:39:23;;;;;;;6.50;2.35;;;10.40;99.90;;;;;;5031699;28;20506;-66
2021/09/22 09:41:55;;;;;;;4.97;2.50;;;10.40;99.90;;;;;;5031833;28;20057;-67
2021/09/22 09:44:26;;;;;;;3.78;2.47;;;10.40;99.90;;;;;;5031478;28;20037;-67
2021/09/22 09:46:54;;;;;;;5.65;2.35;;;10.50;99.90;;;;;;5032035;28;20020;-67
2021/09/22 09:49:23;;;;;;;6.18;2.40;;;10.50;99.90;;;;;;5031722;28;20021;-67
2021/09/22 09:51:51;;;;;;;4.80;2.50;;;10.50;99.90;;;;;;5031607;28;20014;-67
2021/09/22 09:54:32;;;;;;;5.45;2.30;;;10.50;99.90;;;;;;5031624;28;20022;-67
2021/09/22 09:57:13;;;;;;;4.28;2.28;;;10.50;99.90;;;;;;5031456;28;20045;-67
2021/09/22 09:59:49;;;;;;;4.82;2.60;;;10.50;99.90;;;;;;5031479;28;20036;-67
2021/09/22 10:02:25;;;;;;;5.75;2.35;;;10.50;99.90;;;;;;5031769;28;20354;-67
2021/09/22 10:04:51;;;;;;;7.90;2.35;;;10.60;99.90;;;;;;5031616;28;20052;-67
2021/09/22 10:07:17;;;;;;;6.82;2.17;;;10.60;99.90;;;;;;5031497;28;20385;-67
2021/09/22 10:09:44;;;;;;;2.83;2.10;;;10.60;99.90;;;;;;5031119;28;20112;-67
2021/09/22 10:12:11;;;;;;;5.50;2.10;;;10.60;99.90;;;;;;5031400;28;20022;-67
2021/09/22 10:14:38;;;;;;;5.20;2.00;;;10.60;99.90;;;;;;5031211;28;20548;-67
2021/09/22 10:17:05;;;;;;;4.78;2.30;;;10.60;99.90;;;;;;5031281;28;20358;-67
2021/09/22 10:19:32;;;;;;;3.95;2.30;;;10.70;99.90;;;;;;5031109;28;20094;-67
2021/09/22 10:21:58;;;;;;;6.45;1.98;;;10.70;99.90;;;;;;5031256;28;20028;-67
2021/09/22 10:24:24;;;;;;;4.90;1.92;;;10.70;99.90;;;;;;5031024;28;20026;-65
2021/09/22 10:26:50;;;;;;;5.20;2.60;;;10.70;99.90;;;;;;5031022;28;20053;-65
2021/09/22 10:29:35;;;;;;;4.72;2.38;;;10.70;99.90;;;;;;5030931;28;20507;-65
2021/09/22 10:32:02;;;;;;;7.38;2.35;;;10.70;99.90;;;;;;5031394;28;20025;-65
2021/09/22 10:34:33;;;;;;;4.95;2.47;;;10.80;99.90;;;;;;5031102;28;20037;-65
2021/09/22 10:37:00;;;;;;;5.57;2.17;;;10.80;99.90;;;;;;5031000;28;20418;-66
2021/09/22 10:39:35;;;;;;;11.45;2.08;;;10.80;99.90;;;;;;5030159;28;20509;-67
2021/09/22 10:42:20;;;;;;;3.70;2.08;;;10.80;99.90;;;;;;5031006;28;20029;-66
2021/09/22 10:44:46;;;;;;;11.90;2.20;;;10.90;99.90;;;;;;5030596;28;20472;-67
2021/09/22 10:47:21;;;;;;;5.65;1.90;;;10.90;99.90;;;;;;5031098;28;20040;-66
2021/09/22 10:49:47;;;;;;;6.00;1.80;;;10.90;99.90;;;;;;5030260;28;20021;-66
2021/09/22 10:52:40;;;;;;;5.90;2.67;;;10.90;99.90;;;;;;5030572;28;20074;-66
2021/09/22 10:55:13;;;;;;;8.15;2.15;;;10.90;99.90;;;;;;5027546;28;20083;-66
2021/09/22 10:57:41;;;;;;;5.75;2.08;;;10.90;99.90;;;;;;5008764;28;20105;-66
2021/09/22 11:00:10;;;;;;;3.30;1.73;;;10.90;99.90;;;;;;5010907;28;20017;-66
2021/09/22 11:02:55;;;;;;;7.53;2.15;;;10.90;99.90;;;;;;5010761;28;20075;-67
2021/09/22 11:05:27;;;;;;;2.40;1.90;;;10.90;99.90;;;;;;5010926;28;20432;-66
2021/09/22 11:07:52;;;;;;;3.40;1.80;;;10.90;99.90;;;;;;5010885;28;20025;-66
2021/09/22 11:10:50;;;;;;;5.03;2.33;;;11.00;99.90;;;;;;5010715;28;20393;-66
2021/09/22 11:13:19;;;;;;;2.97;1.80;;;11.00;99.90;;;;;;5010633;28;20075;-66
2021/09/22 11:15:56;;;;;;;2.45;1.70;;;11.00;99.90;;;;;;5010806;28;20040;-71
2021/09/22 11:18:22;;;;;;;3.50;1.83;;;11.00;99.90;;;;;;5010607;28;20462;-66
2021/09/22 11:20:56;;;;;;;3.50;1.92;;;11.20;99.90;;;;;;5010417;28;20061;-66
2021/09/22 11:23:23;;;;;;;8.18;2.00;;;11.10;99.90;;;;;;5010597;28;20074;-66
2021/09/22 11:25:49;;;;;;;4.25;2.00;;;11.10;99.90;;;;;;5010052;28;20121;-66
2021/09/22 11:28:15;;;;;;;5.45;1.90;;;11.10;99.90;;;;;;5010620;28;20026;-66
2021/09/22 11:30:43;;;;;;;4.53;1.85;;;11.10;99.90;;;;;;5010205;28;20030;-66
2021/09/22 11:33:23;;;;;;;9.77;2.05;;;11.10;99.90;;;;;;5010235;28;20022;-66
2021/09/22 11:35:49;;;;;;;6.50;1.98;;;11.00;99.90;;;;;;5010283;28;20053;-66
2021/09/22 11:38:15;;;;;;;5.20;2.05;;;11.00;99.90;;;;;;5010380;28;20094;-66
2021/09/22 11:40:42;;;;;;;3.58;1.67;;;11.00;99.90;;;;;;5010254;28;20040;-66
2021/09/22 11:43:14;;;;;;;6.90;1.80;;;11.00;99.90;;;;;;5010132;28;20059;-67
2021/09/22 11:45:41;;;;;;;6.65;1.80;;;11.00;99.90;;;;;;5010001;28;20037;-67
2021/09/22 11:48:10;;;;;;;6.68;2.08;;;11.00;99.90;;;;;;5010031;28;20430;-68
2021/09/22 11:50:40;;;;;;;7.30;2.55;;;11.00;99.90;;;;;;5009418;28;20026;-67
2021/09/22 11:53:10;;;;;;;6.20;1.98;;;11.10;99.90;;;;;;5009842;28;20070;-65
2021/09/22 11:55:37;;;;;;;4.37;2.20;;;11.10;99.90;;;;;;5009649;28;20046;-64
2021/09/22 11:58:05;;;;;;;6.43;1.98;;;11.10;99.90;;;;;;5011567;28;20061;-64
2021/09/22 12:00:31;;;;;;;3.70;1.70;;;11.00;99.90;;;;;;5028984;28;20374;-65
2021/09/22 12:02:57;;;;;;;5.18;1.75;;;11.00;99.90;;;;;;5029529;28;20050;-65
2021/09/22 12:05:23;;;;;;;4.75;2.35;;;11.00;99.90;;;;;;5029222;28;20400;-65
2021/09/22 12:07:54;;;;;;;6.55;2.05;;;11.00;99.90;;;;;;5029050;28;20118;-65
2021/09/22 12:10:20;;;;;;;6.25;1.77;;;11.00;99.90;;;;;;5029445;28;20589;-65
2021/09/22 12:12:46;;;;;;;2.30;1.58;;;11.00;99.90;;;;;;5029591;28;20034;-65
2021/09/22 12:15:14;;;;;;;4.13;1.55;;;11.00;99.90;;;;;;5029338;28;20560;-66
2021/09/22 12:17:41;;;;;;;9.65;1.75;;;11.00;99.90;;;;;;5029039;28;20022;-66
2021/09/22 12:20:26;;;;;;;2.15;1.80;;;11.00;99.90;;;;;;5029625;28;20080;-66
2021/09/22 12:23:01;;;;;;;5.65;1.77;;;11.00;99.90;;;;;;5028301;28;20496;-66
2021/09/22 12:25:28;;;;;;;3.65;1.70;;;11.00;99.90;;;;;;5028677;28;20037;-66
2021/09/22 12:27:54;;;;;;;15.32;3.65;;;11.00;99.90;;;;;;5028871;28;20025;-66
2021/09/22 12:30:28;;;;;;;3.45;2.00;;;11.00;99.90;;;;;;5028886;28;20491;-66
2021/09/22 12:33:09;;;;;;;8.55;2.42;;;11.00;99.90;;;;;;5028911;28;20021;-66
2021/09/22 12:35:37;;;;;;;2.80;1.92;;;11.00;99.90;;;;;;5028838;28;20438;-66
2021/09/22 12:38:06;;;;;;;3.67;1.77;;;10.90;99.90;;;;;;5028985;28;20018;-66
2021/09/22 12:40:36;;;;;;;2.85;1.63;;;10.90;99.90;;;;;;5028448;28;20018;-66
2021/09/22 12:43:16;;;;;;;3.75;1.92;;;10.90;99.90;;;;;;5028645;28;20017;-66
2021/09/22 12:45:42;;;;;;;;;;;10.90;99.90;;;;;;5027272;28;20029;-66
2021/09/22 12:48:08;;;;;;;5.82;1.95;;;10.80;99.90;;;;;;5028766;28;19961;-66
2021/09/22 12:50:38;;;;;;;7.43;2.58;;;10.80;99.90;;;;;;5027773;28;20381;-66
2021/09/22 12:53:13;;;;;;;15.88;2.22;;;10.80;99.90;;;;;;5028750;28;20158;-66
2021/09/22 12:55:42;;;;;;;2.58;1.98;;;10.80;99.90;;;;;;5025997;28;20546;-66
2021/09/22 12:58:10;;;;;;;3.30;1.40;;;10.80;99.90;;;;;;5028452;28;20556;-66
2021/09/22 13:00:52;;;;;;;2.50;1.80;;;10.70;99.90;;;;;;5025948;28;20028;-66
2021/09/22 13:03:26;;;;;;;2.08;1.40;;;10.70;99.90;;;;;;5028598;28;20022;-66
2021/09/22 13:05:56;;;;;;;2.67;1.20;;;10.70;99.90;;;;;;5031685;28;20038;-66
2021/09/22 13:08:25;;;;;;;2.17;1.38;;;10.70;99.90;;;;;;5031854;28;20415;-66
2021/09/22 13:11:06;;;;;;;2.42;1.80;;;10.70;99.90;;;;;;5030385;28;20117;-66
2021/09/22 13:14:13;;;;;;;2.75;1.05;;;10.70;99.90;;;;;;5031742;28;20469;-66
2021/09/22 13:16:57;;;;;;;4.53;1.33;;;10.80;99.90;;;;;;5037213;28;20030;-66
2021/09/22 13:19:27;;;;;;;2.15;1.20;;;10.80;99.90;;;;;;5029950;28;20033;-65
2021/09/22 13:21:58;;;;;;;7.68;1.60;;;10.80;99.90;;;;;;5031452;28;20296;-66
2021/09/22 13:24:25;;;;;;;5.95;1.30;;;10.80;99.90;;;;;;5031395;28;20026;-68